Time;durP1;ratioP1;P1;durP2;ratioP2;P2;SDS_P1;SDS_P2;PMS_P1;PMS_P2;Temp;Humidity;BMP_temperature;BMP_pressure;BME280_temperature;BME280_humidity;BME280_pressure;Samples;Min_cycle;Max_cycle;Signal;HPM_P1;HPM_P2
2022/10/25 04:05:02;;;;;;;20.65;13.02;;;;;;;14.39;100.00;100611.62;5606418;31;76389;-56
2022/10/25 04:08:05;;;;;;;18.55;12.60;;;;;;;14.40;100.00;100610.50;5584179;32;34063;-56
2022/10/25 04:11:07;;;;;;;16.35;11.60;;;;;;;14.41;100.00;100612.12;5599674;31;34284;-56
2022/10/25 04:14:09;;;;;;;15.77;11.55;;;;;;;14.46;100.00;100619.31;5599869;31;33555;-56
2022/10/25 04:17:12;;;;;;;16.98;11.77;;;;;;;14.48;100.00;100620.63;5602227;31;33687;-56
2022/10/25 04:20:14;;;;;;;18.35;11.38;;;;;;;14.51;100.00;100622.75;5596535;31;33395;-56
2022/10/25 04:23:16;;;;;;;17.15;11.80;;;;;;;14.55;100.00;100615.66;5592506;31;33700;-56
2022/10/25 04:26:19;;;;;;;14.50;10.38;;;;;;;14.54;100.00;100619.44;5597878;31;33954;-56
2022/10/25 04:29:21;;;;;;;16.92;11.52;;;;;;;14.50;100.00;100623.84;5601820;31;33562;-56
2022/10/25 04:32:24;;;;;;;15.45;10.40;;;;;;;14.53;100.00;100625.94;5602461;31;34219;-56
2022/10/25 04:35:26;;;;;;;14.82;10.70;;;;;;;14.52;100.00;100621.62;5596014;31;34216;-56
2022/10/25 04:38:28;;;;;;;14.13;10.68;;;;;;;14.55;100.00;100621.03;5601752;31;34296;-56
2022/10/25 04:41:31;;;;;;;13.55;9.95;;;;;;;14.55;100.00;100618.34;5581518;31;34275;-56
2022/10/25 04:44:33;;;;;;;15.10;10.18;;;;;;;14.54;100.00;100619.44;5572403;32;33647;-56
2022/10/25 04:47:36;;;;;;;14.70;10.32;;;;;;;14.60;100.00;100622.03;5582851;32;33652;-56
2022/10/25 04:50:38;;;;;;;13.75;10.38;;;;;;;14.55;100.00;100621.03;5581466;32;34318;-56
2022/10/25 04:53:40;;;;;;;16.60;9.30;;;;;;;14.69;100.00;100625.62;5579967;31;33398;-56
2022/10/25 04:56:43;;;;;;;12.05;9.38;;;;;;;14.74;100.00;100622.84;5584524;31;34232;-56
2022/10/25 04:59:46;;;;;;;13.30;9.20;;;;;;;14.69;100.00;100633.72;5584195;31;33364;-57
2022/10/25 05:02:52;;;;;;;14.15;9.75;;;;;;;14.64;100.00;100631.94;5581494;31;33782;-56
2022/10/25 05:05:54;;;;;;;12.35;9.48;;;;;;;14.65;100.00;100633.53;5584465;31;33679;-56
2022/10/25 05:08:56;;;;;;;13.55;9.85;;;;;;;14.63;100.00;100634.91;5573527;31;34317;-56
2022/10/25 05:11:59;;;;;;;13.32;9.73;;;;;;;14.73;100.00;100640.91;5581207;31;34312;-58
2022/10/25 05:15:01;;;;;;;13.80;9.60;;;;;;;14.70;100.00;100635.31;5576792;31;32991;-57
2022/10/25 05:18:03;;;;;;;16.15;10.50;;;;;;;14.64;100.00;100637.34;5569476;31;33147;-56
2022/10/25 05:21:05;;;;;;;12.77;9.15;;;;;;;14.56;100.00;100635.31;5571972;31;34218;-57
2022/10/25 05:24:08;;;;;;;14.13;10.05;;;;;;;14.55;100.00;100633.72;5577072;31;34405;-56
2022/10/25 05:27:10;;;;;;;14.68;10.10;;;;;;;14.63;100.00;100633.00;5568837;31;33653;-56
2022/10/25 05:30:12;;;;;;;13.95;9.55;;;;;;;14.66;100.00;100631.62;5567677;31;34931;-56
2022/10/25 05:33:14;;;;;;;13.13;7.97;;;;;;;14.61;100.00;100635.22;5574778;31;34314;-57
2022/10/25 05:36:18;;;;;;;13.48;9.25;;;;;;;14.62;100.00;100649.53;5578370;31;34022;-56
2022/10/25 05:39:20;;;;;;;10.48;7.28;;;;;;;14.59;100.00;100669.81;5567546;31;34411;-56
2022/10/25 05:42:22;;;;;;;14.80;8.13;;;;;;;14.72;100.00;100687.09;5565458;32;33825;-56
2022/10/25 05:45:25;;;;;;;14.10;7.68;;;;;;;14.80;100.00;100686.38;5566872;32;33467;-56
2022/10/25 05:48:27;;;;;;;12.63;6.62;;;;;;;14.90;99.91;100698.88;5560302;31;33770;-57
2022/10/25 05:51:31;;;;;;;6.18;3.45;;;;;;;14.94;98.88;100708.78;5555700;31;33712;-56
2022/10/25 05:54:36;;;;;;;7.43;3.05;;;;;;;15.10;93.86;100727.34;5567095;31;33799;-57
2022/10/25 05:57:38;;;;;;;4.68;2.90;;;;;;;15.11;93.05;100729.75;5577075;31;33833;-56
2022/10/25 06:00:40;;;;;;;7.07;3.08;;;;;;;15.19;93.54;100737.12;5575167;31;33732;-56
2022/10/25 06:03:45;;;;;;;5.93;3.65;;;;;;;15.20;92.38;100730.66;5571835;31;34229;-56
2022/10/25 06:06:50;;;;;;;7.28;3.75;;;;;;;15.27;91.61;100720.25;5572841;31;34176;-56
2022/10/25 06:09:53;;;;;;;7.20;3.83;;;;;;;15.34;91.19;100711.72;5557004;31;33640;-56
2022/10/25 06:12:56;;;;;;;4.93;3.28;;;;;;;15.33;91.52;100714.72;5569490;31;33702;-56
2022/10/25 06:16:09;;;;;;;5.93;3.10;;;;;;;15.36;92.40;100722.22;5567138;32;33599;-56
2022/10/25 06:19:11;;;;;;;8.35;3.87;;;;;;;15.42;92.89;100739.91;5574590;31;33694;-56
2022/10/25 06:22:13;;;;;;;7.82;4.22;;;;;;;15.43;92.14;100736.09;5584760;31;34166;-56
2022/10/25 06:25:16;;;;;;;8.93;4.78;;;;;;;15.47;91.37;100742.50;5588805;31;34341;-57
2022/10/25 06:28:18;;;;;;;8.82;4.45;;;;;;;15.44;92.32;100748.53;5572537;31;33585;-56
2022/10/25 06:31:21;;;;;;;8.52;5.72;;;;;;;15.45;92.83;100764.41;5567196;31;33708;-56
2022/10/25 06:34:23;;;;;;;7.93;4.82;;;;;;;15.45;91.69;100771.72;5566802;31;33091;-56
2022/10/25 06:37:25;;;;;;;5.40;3.70;;;;;;;15.44;91.48;100770.94;5569496;31;33738;-56
2022/10/25 06:40:27;;;;;;;6.93;4.00;;;;;;;15.62;86.71;100784.59;5576779;31;31946;-56
2022/10/25 06:43:31;;;;;;;7.85;3.55;;;;;;;15.58;87.07;100770.09;5579402;31;34335;-56
2022/10/25 06:46:36;;;;;;;8.13;4.47;;;;;;;15.71;89.13;100772.78;5574864;31;33825;-56
2022/10/25 06:49:58;;;;;;;5.10;4.13;;;;;;;15.76;86.59;100769.19;5572570;31;33743;-57
2022/10/25 06:53:01;;;;;;;7.40;3.90;;;;;;;15.79;88.58;100768.56;5569456;31;33120;-56
2022/10/25 06:56:06;;;;;;;3.25;2.50;;;;;;;15.77;88.61;100776.19;5575024;31;34368;-56
2022/10/25 06:59:13;;;;;;;5.25;2.92;;;;;;;15.81;84.57;100769.06;5567985;31;33611;-57
2022/10/25 07:02:16;;;;;;;5.78;3.25;;;;;;;15.86;84.24;100763.56;5578722;31;35229;-56
2022/10/25 07:05:19;;;;;;;7.30;3.12;;;;;;;15.83;84.94;100766.88;5588174;31;33657;-56
2022/10/25 07:08:21;;;;;;;6.82;3.72;;;;;;;15.87;84.83;100765.13;5565525;31;33622;-56
2022/10/25 07:11:25;;;;;;;11.60;5.87;;;;;;;15.95;86.00;100764.41;5580595;31;33439;-56
2022/10/25 07:14:27;;;;;;;10.88;5.68;;;;;;;15.89;86.65;100759.41;5582642;31;33674;-56
2022/10/25 07:17:34;;;;;;;8.45;4.90;;;;;;;15.90;85.36;100752.91;5577602;31;34334;-56
2022/10/25 07:20:45;;;;;;;9.27;6.70;;;;;;;15.89;86.31;100760.25;5562038;32;34319;-56
2022/10/25 07:23:49;;;;;;;11.90;6.87;;;;;;;15.91;86.66;100768.81;5568340;31;33668;-56
2022/10/25 07:26:51;;;;;;;8.40;6.40;;;;;;;15.89;87.47;100771.06;5568924;32;33665;-56
2022/10/25 07:29:54;;;;;;;7.80;5.93;;;;;;;15.95;88.01;100779.81;5562121;32;34229;-56
2022/10/25 07:32:57;;;;;;;9.98;5.85;;;;;;;15.97;88.76;100777.62;5566348;31;33792;-56
2022/10/25 07:36:00;;;;;;;9.98;5.57;;;;;;;15.98;89.26;100782.72;5571642;31;33816;-55
2022/10/25 07:39:17;;;;;;;11.60;5.68;;;;;;;16.00;90.47;100792.44;5580416;31;33660;-56
2022/10/25 07:42:19;;;;;;;9.38;5.57;;;;;;;15.98;88.55;100792.72;5579288;31;33933;-56
2022/10/25 07:45:22;;;;;;;8.00;4.78;;;;;;;15.96;89.21;100793.06;5572483;31;34173;-56
2022/10/25 07:48:27;;;;;;;13.77;5.37;;;;;;;16.03;85.12;100794.53;5567067;31;33721;-56
2022/10/25 07:51:29;;;;;;;8.40;3.80;;;;;;;15.97;86.42;100800.06;5564834;32;33027;-53
2022/10/25 07:54:32;;;;;;;6.57;2.85;;;;;;;16.00;85.67;100798.66;5576653;31;33742;-54
2022/10/25 07:57:34;;;;;;;4.80;2.62;;;;;;;16.01;85.15;100812.97;5565811;31;33642;-54
2022/10/25 08:00:37;;;;;;;4.37;2.40;;;;;;;16.04;86.78;100812.34;5564876;31;33663;-53
2022/10/25 08:03:39;;;;;;;2.00;1.73;;;;;;;16.11;86.57;100821.62;5562105;32;33668;-53
2022/10/25 08:06:41;;;;;;;4.30;2.30;;;;;;;16.20;81.38;100821.72;5565352;31;33841;-54
2022/10/25 08:09:44;;;;;;;3.85;2.00;;;;;;;16.23;83.84;100821.09;5562882;31;33660;-53
2022/10/25 08:12:48;;;;;;;4.15;1.77;;;;;;;16.32;82.38;100826.56;5566851;31;31732;-56
2022/10/25 08:15:51;;;;;;;15.43;4.32;;;;;;;16.31;82.54;100812.22;5564525;31;33103;-56
2022/10/25 08:18:53;;;;;;;10.48;2.10;;;;;;;16.33;82.38;100818.16;5570162;31;33655;-56
2022/10/25 08:21:56;;;;;;;3.55;1.92;;;;;;;16.35;82.41;100820.53;5573575;31;32085;-55
2022/10/25 08:24:59;;;;;;;5.37;2.03;;;;;;;16.41;81.70;100814.69;5571987;31;33665;-55
2022/10/25 08:28:01;;;;;;;4.75;2.20;;;;;;;16.45;85.53;100812.94;5571910;31;33669;-56
2022/10/25 08:31:03;;;;;;;2.95;1.80;;;;;;;16.47;82.65;100814.56;5561184;31;33455;-56
2022/10/25 08:34:06;;;;;;;4.65;1.90;;;;;;;16.45;81.13;100804.84;5568408;31;33599;-56
2022/10/25 08:37:11;;;;;;;6.60;2.20;;;;;;;16.39;81.45;100807.97;5573730;31;33589;-56
2022/10/25 08:40:18;;;;;;;7.68;2.55;;;;;;;16.41;80.61;100808.47;5577487;31;34565;-55
2022/10/25 08:43:29;;;;;;;4.03;2.53;;;;;;;16.31;82.27;100803.31;5586996;31;33723;-56
2022/10/25 08:46:40;;;;;;;2.83;2.00;;;;;;;16.27;82.66;100813.97;5580346;31;34394;-55
2022/10/25 08:50:04;;;;;;;4.95;2.58;;;;;;;16.28;82.30;100820.97;5578415;31;33835;-56
2022/10/25 08:53:32;;;;;;;6.62;2.30;;;;;;;16.30;82.85;100823.37;5559802;31;33717;-56
2022/10/25 08:56:35;;;;;;;7.47;2.65;;;;;;;16.26;82.43;100823.19;5574165;31;33451;-57
2022/10/25 08:59:55;;;;;;;5.43;2.53;;;;;;;16.25;83.07;100835.09;5576154;31;33822;-56
2022/10/25 09:02:59;;;;;;;6.65;2.47;;;;;;;16.26;82.34;100827.78;5583398;31;33601;-56
2022/10/25 09:06:27;;;;;;;7.50;2.55;;;;;;;16.29;82.13;100837.97;5588486;31;34302;-56
2022/10/25 09:09:39;;;;;;;12.95;2.80;;;;;;;16.30;82.84;100840.41;5562833;31;34207;-55
2022/10/25 09:13:00;;;;;;;4.43;2.50;;;;;;;16.34;82.55;100844.09;5577285;31;33792;-56
2022/10/25 09:16:08;;;;;;;6.07;2.58;;;;;;;16.40;81.50;100840.16;5580697;31;33592;-55
2022/10/25 09:19:22;;;;;;;5.18;2.37;;;;;;;16.44;81.60;100843.03;5584068;31;34466;-56
2022/10/25 09:22:27;;;;;;;14.77;3.20;;;;;;;16.47;81.29;100847.03;5570303;31;33704;-56
2022/10/25 09:25:39;;;;;;;5.90;3.07;;;;;;;16.44;83.20;100843.84;5568534;31;33665;-56
2022/10/25 09:28:48;;;;;;;11.57;2.53;;;;;;;16.44;81.65;100833.00;5555564;31;34358;-55
2022/10/25 09:31:55;;;;;;;9.02;2.90;;;;;;;16.44;81.63;100849.25;5571659;31;33684;-56
2022/10/25 09:35:00;;;;;;;4.90;2.50;;;;;;;16.45;80.77;100840.00;5579069;31;34282;-56
2022/10/25 09:38:11;;;;;;;7.28;2.62;;;;;;;16.44;80.47;100843.84;5586347;31;34375;-56
2022/10/25 09:41:23;;;;;;;5.65;2.40;;;;;;;16.49;80.22;100834.81;5570856;31;34004;-56
2022/10/25 09:44:37;;;;;;;6.18;2.15;;;;;;;16.47;80.11;100836.22;5584042;31;33634;-56
2022/10/25 09:47:47;;;;;;;5.68;2.28;;;;;;;16.47;78.54;100839.72;5568900;31;33636;-56
2022/10/25 09:50:57;;;;;;;3.78;2.28;;;;;;;16.49;79.83;100826.69;5581819;31;34203;-56
2022/10/25 09:54:12;;;;;;;6.47;3.15;;;;;;;16.53;80.62;100843.09;5579908;31;33974;-56
2022/10/25 09:57:14;;;;;;;5.07;2.33;;;;;;;16.60;78.73;100835.34;5586722;31;34505;-56
2022/10/25 10:00:17;;;;;;;5.25;2.70;;;;;;;16.65;79.17;100844.16;5583591;31;33651;-56
2022/10/25 10:03:20;;;;;;;4.60;2.40;;;;;;;16.63;79.01;100840.16;5567584;32;34449;-56
2022/10/25 10:06:32;;;;;;;5.55;2.22;;;;;;;16.66;79.59;100850.34;5576010;31;33261;-56
2022/10/25 10:09:39;;;;;;;5.15;2.10;;;;;;;16.76;81.42;100852.84;5586684;31;34513;-56
2022/10/25 10:13:06;;;;;;;5.45;2.10;;;;;;;16.78;79.23;100852.50;5579697;31;33654;-56
2022/10/25 10:16:20;;;;;;;10.48;2.20;;;;;;;16.80;76.58;100861.94;5583986;31;33700;-55
2022/10/25 10:19:25;;;;;;;6.45;2.62;;;;;;;16.82;77.37;100848.88;5584652;31;34535;-55
2022/10/25 10:22:28;;;;;;;4.45;2.30;;;;;;;16.81;76.90;100851.88;5574763;31;34370;-55
2022/10/25 10:25:30;;;;;;;4.57;1.80;;;;;;;16.80;75.99;100853.81;5559049;32;33696;-56
2022/10/25 10:28:34;;;;;;;3.17;1.75;;;;;;;16.90;74.16;100858.16;5569060;32;33657;-56
2022/10/25 10:31:41;;;;;;;4.80;2.30;;;;;;;16.86;74.65;100855.28;5562667;32;33605;-56
2022/10/25 10:34:50;;;;;;;3.87;2.03;;;;;;;16.83;76.33;100838.84;5568473;31;34307;-56
2022/10/25 10:38:12;;;;;;;4.10;2.15;;;;;;;16.80;76.58;100837.56;5568756;32;33261;-56
2022/10/25 10:41:25;;;;;;;4.18;2.05;;;;;;;16.83;76.54;100847.78;5568384;31;33705;-56
2022/10/25 10:44:35;;;;;;;4.07;2.25;;;;;;;16.89;76.83;100849.25;5567560;31;33923;-56
2022/10/25 10:47:37;;;;;;;2.70;1.90;;;;;;;16.83;75.99;100850.47;5570853;31;33813;-56
2022/10/25 10:50:47;;;;;;;3.22;1.85;;;;;;;16.86;76.76;100866.09;5572418;31;33736;-56
2022/10/25 10:53:50;;;;;;;3.00;1.83;;;;;;;16.81;76.23;100855.38;5563758;31;33863;-55
2022/10/25 10:57:01;;;;;;;3.53;2.08;;;;;;;16.84;76.91;100856.69;5562885;31;31949;-56
2022/10/25 11:00:05;;;;;;;4.70;2.00;;;;;;;16.84;75.69;100854.78;5568198;32;34303;-56
2022/10/25 11:03:42;;;;;;;4.68;2.33;;;;;;;16.90;76.63;100861.66;5568450;32;33725;-56
2022/10/25 11:07:25;;;;;;;5.70;2.40;;;;;;;16.88;76.87;100869.28;5565597;31;33851;-56
2022/10/25 11:10:35;;;;;;;7.37;2.30;;;;;;;16.90;76.42;100869.78;5565716;31;34327;-55
2022/10/25 11:13:38;;;;;;;5.30;1.90;;;;;;;16.94;76.20;100861.03;5566402;31;34364;-56
2022/10/25 11:16:55;;;;;;;3.92;2.30;;;;;;;16.93;76.65;100854.03;5575796;31;33791;-56
2022/10/25 11:20:23;;;;;;;4.68;2.40;;;;;;;16.93;76.43;100851.31;5570715;31;34464;-55
2022/10/25 11:23:35;;;;;;;7.53;2.20;;;;;;;16.97;76.88;100852.28;5566082;31;34278;-56
2022/10/25 11:26:47;;;;;;;5.70;2.00;;;;;;;17.02;76.75;100847.56;5568347;32;33702;-55
2022/10/25 11:30:08;;;;;;;4.25;2.15;;;;;;;17.08;76.44;100859.03;5567420;32;33861;-56
2022/10/25 11:33:29;;;;;;;3.72;2.30;;;;;;;17.08;76.06;100859.81;5563788;32;33645;-56
2022/10/25 11:36:46;;;;;;;5.47;2.30;;;;;;;17.14;76.88;100858.56;5573157;31;34443;-55
2022/10/25 11:40:11;;;;;;;4.50;2.03;;;;;;;17.20;76.29;100867.37;5582234;31;34304;-55
2022/10/25 11:43:48;;;;;;;5.40;2.30;;;;;;;17.12;76.51;100860.81;5568229;31;33736;-56
2022/10/25 11:47:10;;;;;;;4.60;2.28;;;;;;;17.22;76.12;100848.91;5571022;31;33655;-56
2022/10/25 11:50:33;;;;;;;3.42;2.05;;;;;;;17.29;75.28;100846.53;5576854;31;33866;-55
2022/10/25 11:53:41;;;;;;;5.32;2.10;;;;;;;17.36;72.86;100843.37;5583820;31;34385;-55
2022/10/25 11:57:15;;;;;;;7.10;2.28;;;;;;;17.47;71.33;100846.59;5587927;31;34383;-55
2022/10/25 12:00:20;;;;;;;5.90;2.62;;;;;;;17.52;72.79;100841.03;5540465;31;33589;-56
2022/10/25 12:03:39;;;;;;;6.87;1.90;;;;;;;17.72;70.76;100835.00;5566462;32;33617;-55
2022/10/25 12:07:03;;;;;;;5.50;1.92;;;;;;;17.73;71.12;100833.87;5561619;32;34035;-55
2022/10/25 12:10:24;;;;;;;3.58;1.42;;;;;;;17.79;70.03;100832.66;5561217;32;33741;-55
2022/10/25 12:13:34;;;;;;;3.60;1.60;;;;;;;17.83;69.62;100830.09;5568101;32;34384;-56
2022/10/25 12:16:40;;;;;;;3.70;1.98;;;;;;;17.90;69.23;100821.47;5564732;32;33621;-56
2022/10/25 12:19:45;;;;;;;5.73;1.70;;;;;;;17.86;69.86;100832.16;5559924;32;34103;-56
2022/10/25 12:22:50;;;;;;;5.37;2.00;;;;;;;17.89;69.64;100830.75;5567645;32;33166;-56
2022/10/25 12:26:04;;;;;;;5.30;1.98;;;;;;;17.92;68.63;100828.19;5569445;32;33701;-56
2022/10/25 12:29:16;;;;;;;3.03;1.60;;;;;;;17.91;70.86;100834.72;5570297;32;33888;-56
2022/10/25 12:32:28;;;;;;;4.00;1.70;;;;;;;18.14;66.81;100829.94;5569920;32;33703;-56
2022/10/25 12:35:35;;;;;;;6.00;1.70;;;;;;;18.36;64.83;100833.59;5567585;32;33962;-56
2022/10/25 12:38:38;;;;;;;2.80;1.42;;;;;;;18.47;64.17;100834.84;5570276;32;33862;-55
2022/10/25 12:41:46;;;;;;;3.53;1.70;;;;;;;18.37;64.93;100841.41;5570300;32;34294;-56
2022/10/25 12:45:20;;;;;;;3.55;1.60;;;;;;;18.34;64.06;100841.25;5570117;32;33744;-55
2022/10/25 12:49:02;;;;;;;4.40;1.60;;;;;;;18.28;64.86;100846.84;5569924;32;33281;-56
2022/10/25 12:52:22;;;;;;;5.47;2.05;;;;;;;18.23;67.73;100847.00;5511111;32;34820;-56
2022/10/25 12:55:34;;;;;;;6.37;2.08;;;;;;;18.26;65.37;100843.66;5550432;32;33610;-56
2022/10/25 12:58:49;;;;;;;4.28;2.05;;;;;;;18.21;65.65;100851.16;5550805;32;33603;-55
2022/10/25 13:02:19;;;;;;;7.35;2.20;;;;;;;18.23;64.87;100847.00;5550763;32;33621;-55
2022/10/25 13:06:07;;;;;;;4.53;1.92;;;;;;;18.25;65.61;100844.00;5551139;32;33742;-56
2022/10/25 13:09:14;;;;;;;6.85;2.15;;;;;;;18.25;65.57;100846.72;5569241;32;34388;-55
2022/10/25 13:12:21;;;;;;;2.92;1.90;;;;;;;18.35;64.55;100845.59;5570387;32;34363;-56
2022/10/25 13:15:23;;;;;;;4.62;2.20;;;;;;;18.33;65.08;100847.81;5570222;32;33752;-56
2022/10/25 13:18:38;;;;;;;7.65;2.20;;;;;;;18.37;66.03;100843.31;5568898;32;34288;-55
2022/10/25 13:22:05;;;;;;;5.37;2.15;;;;;;;18.27;66.25;100850.66;5570352;32;34329;-55
2022/10/25 13:25:07;;;;;;;4.32;1.90;;;;;;;18.27;67.56;100847.97;5563147;32;33772;-56
2022/10/25 13:28:09;;;;;;;3.08;1.77;;;;;;;18.25;66.84;100847.50;5570283;32;34391;-55
2022/10/25 13:31:45;;;;;;;5.15;2.12;;;;;;;18.24;66.09;100839.66;5570407;32;33902;-56
2022/10/25 13:34:48;;;;;;;4.60;1.70;;;;;;;18.38;66.63;100856.59;5569865;32;34365;-56
2022/10/25 13:38:06;;;;;;;2.97;1.52;;;;;;;18.30;66.49;100857.37;5569927;32;33720;-55
2022/10/25 13:41:17;;;;;;;2.55;1.62;;;;;;;18.39;63.08;100862.81;5570005;32;33758;-56
2022/10/25 13:44:26;;;;;;;5.20;1.45;;;;;;;18.37;64.28;100854.19;5570101;32;33805;-56
2022/10/25 13:47:41;;;;;;;4.00;1.87;;;;;;;18.33;64.06;100853.25;5569890;32;33679;-56
2022/10/25 13:50:55;;;;;;;4.53;1.67;;;;;;;18.37;63.85;100851.47;5569686;32;33738;-56
2022/10/25 13:54:02;;;;;;;1.92;1.30;;;;;;;18.31;64.56;100856.28;5569155;32;33656;-57
2022/10/25 13:57:47;;;;;;;3.62;1.50;;;;;;;18.29;63.75;100859.31;5569443;32;33650;-56
2022/10/25 14:00:50;;;;;;;3.78;1.62;;;;;;;18.37;63.73;100865.03;5569898;32;33659;-56
2022/10/25 14:04:02;;;;;;;2.47;1.33;;;;;;;18.34;64.16;100862.97;5569797;32;33638;-56
2022/10/25 14:07:43;;;;;;;10.65;1.50;;;;;;;18.38;61.89;100859.31;5569760;32;33668;-55
2022/10/25 14:10:48;;;;;;;5.18;1.85;;;;;;;18.35;62.86;100862.66;5569611;32;33669;-56
2022/10/25 14:14:12;;;;;;;5.12;1.45;;;;;;;18.37;63.69;100868.56;5569952;32;33827;-56
2022/10/25 14:17:38;;;;;;;5.97;1.37;;;;;;;18.29;62.06;100869.38;5569715;32;33766;-56
2022/10/25 14:20:44;;;;;;;3.75;1.48;;;;;;;18.26;63.76;100870.78;5569874;32;33769;-56
2022/10/25 14:23:48;;;;;;;;;;;;;;;18.22;64.23;100871.75;5570076;32;33821;-56
2022/10/25 14:26:58;;;;;;;2.10;1.60;;;;;;;18.18;65.12;100876.22;5569621;32;33981;-56
2022/10/25 14:30:24;;;;;;;7.87;1.90;;;;;;;18.17;66.61;100870.00;5567610;32;33908;-56
2022/10/25 14:33:32;;;;;;;7.78;2.00;;;;;;;18.10;66.92;100883.25;5567702;32;34080;-55
2022/10/25 14:36:40;;;;;;;7.82;1.83;;;;;;;18.07;67.91;100879.25;5566930;32;33404;-56
2022/10/25 14:39:52;;;;;;;8.32;2.30;;;;;;;18.06;68.31;100887.72;5567795;32;33723;-56
2022/10/25 14:42:54;;;;;;;4.20;1.75;;;;;;;18.04;68.11;100881.78;5566347;32;33636;-56
2022/10/25 14:46:09;;;;;;;5.57;1.70;;;;;;;17.99;67.77;100882.75;5567741;32;33358;-56
2022/10/25 14:49:11;;;;;;;4.35;1.85;;;;;;;18.01;67.55;100882.44;5564684;32;34178;-56
2022/10/25 14:52:13;;;;;;;4.68;1.80;;;;;;;18.04;67.43;100879.09;5567569;32;34370;-56
2022/10/25 14:55:31;;;;;;;7.18;1.95;;;;;;;17.98;68.01;100886.59;5567671;32;33586;-56
2022/10/25 14:58:42;;;;;;;2.95;1.50;;;;;;;17.96;68.07;100885.31;5565965;32;33645;-56
2022/10/25 15:01:53;;;;;;;6.07;1.58;;;;;;;17.89;68.77;100887.69;5567602;32;33732;-55
2022/10/25 15:04:58;;;;;;;7.70;1.60;;;;;;;17.82;68.89;100880.81;5566399;32;33673;-56
2022/10/25 15:08:01;;;;;;;11.23;2.00;;;;;;;17.79;69.02;100884.16;5567527;32;33671;-57
2022/10/25 15:11:07;;;;;;;6.85;1.90;;;;;;;17.78;71.04;100887.19;5555542;32;33664;-56
2022/10/25 15:14:20;;;;;;;4.60;1.60;;;;;;;17.81;69.65;100884.66;5550914;32;33645;-56
2022/10/25 15:17:21;;;;;;;5.15;2.00;;;;;;;17.86;70.39;100882.91;5566889;32;33231;-55
2022/10/25 15:20:42;;;;;;;3.05;1.40;;;;;;;17.75;69.83;100880.47;5569315;32;34405;-55
2022/10/25 15:24:23;;;;;;;5.45;1.70;;;;;;;17.67;70.58;100883.94;5569450;32;33638;-56
2022/10/25 15:27:38;;;;;;;5.70;1.62;;;;;;;17.54;71.67;100882.16;5569442;32;33704;-56
2022/10/25 15:30:46;;;;;;;5.03;1.73;;;;;;;17.45;71.02;100889.44;5569202;32;34289;-57
2022/10/25 15:34:03;;;;;;;6.32;1.80;;;;;;;17.39;73.47;100894.22;5568055;32;34359;-56
2022/10/25 15:37:09;;;;;;;3.33;1.80;;;;;;;17.33;73.85;100899.00;5569077;32;34215;-57
2022/10/25 15:40:14;;;;;;;;;;;;;;;17.34;73.57;100900.56;5569444;32;33765;-57
2022/10/25 15:43:16;;;;;;;5.20;1.98;;;;;;;17.23;73.56;100904.69;5569259;32;34581;-55
2022/10/25 15:46:33;;;;;;;13.77;2.40;;;;;;;17.23;73.75;100904.69;5568957;32;34439;-55
2022/10/25 15:49:35;;;;;;;7.25;2.10;;;;;;;17.13;74.17;100904.94;5568914;32;33688;-55
